Latest Weather Observations for Strathalbyn

IDS60901

Issued at 9:11 pm CDT Monday 20 February 2017 (issued every 10 minutes, with the page automatically refreshed every 10 minutes)

About weather observations | Map of Adelaide area stations | Latest observations for Adelaide area | Other Formats
Station Details ID: 024580 Name: STRATHALBYN RACECOURSE Lat: -35.28 Lon: 138.89 Height: 58.0 m
Data from the previous 72 hours. | See also: Recent months at Strathalbyn
Date/Time
CDT
Temp
°C
App
Temp
°C
Dew
Point
°C
Rel
Hum
%
Delta-T
°C
Wind Press
QNH
hPa
Press
MSL
hPa
Rain since
9am
mm
Dir  Spd
km/h
Gust
km/h
Spd
kts
Gust
kts
20/09:00pm 12.3 11.4 6.1 66 2.9 CALM 0 0 0 0 1019.4 1019.3 0.0
20/08:30pm 13.7 10.8 6.3 61 3.5 S 11 13 6 7 1019.2 1019.1 0.0
20/08:00pm 15.4 11.3 6.4 55 4.4 S 17 20 9 11 1018.9 1018.8 0.0
20/07:30pm 16.6 11.6 6.4 51 5.0 S 22 26 12 14 1018.4 1018.2 0.0
20/07:00pm 17.3 12.3 6.5 49 5.3 S 22 30 12 16 1018.0 1017.8 0.0
20/06:30pm 17.8 12.9 6.7 48 5.5 SSW 22 28 12 15 1017.8 1017.6 0.0
20/06:00pm 18.2 13.3 6.7 47 5.7 S 22 32 12 17 1017.5 1017.3 0.0
20/05:30pm 18.6 13.5 5.8 43 6.3 SSW 22 30 12 16 1017.4 1017.2 0.0
20/05:00pm 18.6 13.0 5.5 42 6.4 SSW 24 33 13 18 1017.4 1017.2 0.0
20/04:30pm 19.1 13.4 6.6 44 6.3 SSW 26 35 14 19 1017.2 1017.0 0.0
20/04:00pm 19.1 13.4 6.9 45 6.2 S 26 35 14 19 1017.3 1017.1 0.0
20/03:30pm 19.7 14.2 7.4 45 6.3 S 26 35 14 19 1017.3 1017.1 0.0
20/03:00pm 19.3 14.7 6.4 43 6.4 SSW 20 32 11 17 1017.4 1017.2 0.0
20/02:30pm 20.1 16.1 6.8 42 6.7 SSW 17 28 9 15 1017.5 1017.3 0.0
20/02:00pm 19.7 14.9 5.7 40 6.9 S 20 30 11 16 1017.8 1017.6 0.0
20/01:30pm 19.5 14.8 5.2 39 7.0 SSW 19 26 10 14 1017.8 1017.6 0.0
20/01:00pm 19.2 14.4 5.6 41 6.7 SSW 20 28 11 15 1018.1 1017.9 0.0
20/12:30pm 19.3 15.1 5.7 41 6.7 SSW 17 28 9 15 1018.2 1018.0 0.0
20/12:00pm 18.3 14.3 6.5 46 5.9 SSW 17 28 9 15 1018.4 1018.2 0.0
20/11:30am 18.3 14.8 5.5 43 6.2 SSW 13 20 7 11 1018.7 1018.6 0.0
20/11:00am 17.0 13.0 5.0 45 5.7 SSW 15 20 8 11 1018.9 1018.8 0.0
20/10:30am 17.0 13.2 5.6 47 5.5 SSW 15 24 8 13 1018.9 1018.8 0.0
20/10:00am 16.8 14.4 6.9 52 4.9 SW 9 15 5 8 1019.0 1018.9 0.0
20/09:30am 16.0 13.3 7.5 57 4.2 S 11 15 6 8 1018.8 1018.7 0.0
20/09:00am 16.3 13.4 8.0 58 4.2 SSW 13 19 7 10 1018.6 1018.5 1.0
20/08:30am 15.5 13.7 7.3 58 4.1 WSW 6 9 3 5 1018.4 1018.2 1.0
20/08:00am 14.8 13.3 9.0 68 3.0 W 7 9 4 5 1018.1 1017.9 1.0
20/07:30am 13.9 12.5 9.5 75 2.3 WSW 7 11 4 6 1017.8 1017.6 1.0
20/07:00am 13.4 11.3 9.6 78 1.9 WSW 11 11 6 6 1017.5 1017.3 1.0
20/06:30am 13.3 11.1 9.5 78 1.9 W 11 13 6 7 1017.2 1017.0 1.0
20/06:00am 13.3 11.6 9.9 80 1.7 W 9 11 5 6 1016.8 1016.6 1.0
20/05:30am 13.4 11.8 10.2 81 1.7 W 9 13 5 7 1016.6 1016.4 1.0
20/05:00am 13.5 11.5 10.3 81 1.7 W 11 13 6 7 1016.3 1016.1 1.0
20/04:30am 13.4 11.1 10.4 82 1.6 W 13 17 7 9 1016.2 1016.0 1.0
20/04:00am 13.5 10.8 10.5 82 1.6 W 15 20 8 11 1016.3 1016.1 1.0
20/03:30am 13.3 11.4 10.5 83 1.5 W 11 15 6 8 1016.3 1016.1 1.0
20/03:00am 13.3 11.5 10.7 84 1.4 WSW 11 15 6 8 1016.3 1016.1 1.0
20/02:30am 13.4 11.5 10.6 83 1.5 WSW 11 19 6 10 1016.5 1016.3 0.8
20/02:00am 13.5 11.9 10.3 81 1.7 W 9 13 5 7 1016.2 1016.0 0.8
20/01:30am 13.4 11.5 10.4 82 1.6 W 11 13 6 7 1016.5 1016.3 0.8
20/01:00am 13.4 11.8 10.2 81 1.7 SW 9 13 5 7 1016.7 1016.5 0.8
20/12:30am 13.5 11.2 10.3 81 1.7 WSW 13 17 7 9 1016.8 1016.6 0.8
20/12:00am 13.3 11.0 10.5 83 1.5 WSW 13 17 7 9 1016.7 1016.5 0.8
 
Date/Time
CDT
Temp
°C
App
Temp
°C
Dew
Point
°C
Rel
Hum
%
Delta-T
°C
Wind Press
QNH
hPa
Press
MSL
hPa
Rain since
9am
mm
Dir  Spd
km/h
Gust
km/h
Spd
kts
Gust
kts
19/11:30pm 13.4 11.1 10.6 83 1.5 WSW 13 19 7 10 1016.9 1016.7 0.8
19/11:00pm 13.3 11.1 10.7 84 1.4 W 13 17 7 9 1017.0 1016.8 0.6
19/10:30pm 13.0 11.1 10.5 85 1.3 WSW 11 13 6 7 1017.0 1016.8 0.4
19/10:00pm 13.3 11.2 11.0 86 1.2 W 13 15 7 8 1016.9 1016.7 0.4
19/09:30pm 13.5 11.9 11.6 88 1.0 WSW 11 20 6 11 1016.9 1016.7 0.4
19/09:00pm 13.4 11.0 11.3 87 1.1 SW 15 24 8 13 1016.5 1016.3 0.0
19/08:30pm 14.1 10.5 10.5 79 1.9 SSW 20 26 11 14 1016.4 1016.2 0.0
19/08:00pm 15.5 11.7 9.0 65 3.3 SW 19 26 10 14 1016.0 1015.8 0.0
19/07:30pm 15.4 10.7 9.1 66 3.2 SW 24 35 13 19 1015.9 1015.7 0.0
19/07:00pm 16.3 11.7 9.7 65 3.5 SW 24 37 13 20 1015.6 1015.4 0.0
19/06:30pm 15.8 9.7 9.9 68 3.1 SSW 32 41 17 22 1015.4 1015.2 0.0
19/06:00pm 16.7 11.5 10.1 65 3.5 SSW 28 37 15 20 1015.4 1015.2 0.0
19/05:30pm 16.8 11.5 9.7 63 3.7 SSW 28 39 15 21 1015.3 1015.1 0.0
19/05:00pm 17.5 13.0 8.4 55 4.7 SW 22 32 12 17 1015.4 1015.2 0.0
19/04:30pm 18.0 12.1 7.4 50 5.4 SW 28 39 15 21 1015.2 1015.0 0.0
19/04:00pm 18.4 11.5 10.3 59 4.3 SSW 37 46 20 25 1015.2 1015.0 0.0
19/03:30pm 18.6 12.1 8.8 53 5.1 SSW 33 44 18 24 1015.3 1015.1 0.0
19/03:00pm 18.8 12.4 8.5 51 5.3 SSW 32 43 17 23 1015.2 1015.0 0.0
19/02:30pm 18.1 12.2 9.2 56 4.7 SSW 30 37 16 20 1015.6 1015.4 0.0
19/02:00pm 19.4 14.8 9.6 53 5.2 SW 24 35 13 19 1015.7 1015.5 0.0
19/01:30pm 17.9 13.3 9.8 59 4.3 SW 24 33 13 18 1016.1 1015.9 0.0
19/01:00pm 15.3 9.8 10.7 74 2.4 SW 30 41 16 22 1016.6 1016.4 0.0
19/12:48pm 17.3 11.1 9.2 59 4.2 SSW 32 50 17 27 1016.2 1016.0 0.0
19/12:30pm 17.5 11.3 9.4 59 4.2 SSW 32 43 17 23 1016.4 1016.2 0.0
19/12:00pm 16.8 12.4 8.8 59 4.1 SW 22 41 12 22 1016.6 1016.4 0.0
19/11:30am 17.1 13.2 9.3 60 4.1 W 20 30 11 16 1016.7 1016.5 0.0
19/11:00am 16.4 12.4 9.1 62 3.8 SW 20 30 11 16 1016.9 1016.7 0.0
19/10:30am 15.4 12.1 9.7 69 3.0 SW 17 26 9 14 1016.9 1016.7 0.0
19/10:00am 16.3 13.0 9.5 64 3.5 WSW 17 24 9 13 1016.8 1016.6 0.0
19/09:30am 15.5 12.6 9.8 69 3.0 WSW 15 20 8 11 1016.9 1016.7 0.0
19/09:00am 14.5 10.5 8.9 69 2.8 SW 20 32 11 17 1016.8 1016.6 0.8
19/08:30am 14.2 10.6 9.8 75 2.3 W 19 26 10 14 1016.5 1016.3 0.8
19/08:00am 13.8 10.9 9.5 75 2.2 WSW 15 30 8 16 1016.4 1016.2 0.8
19/07:30am 13.5 10.1 9.2 75 2.2 WSW 17 24 9 13 1016.1 1015.9 0.8
19/07:00am 12.9 9.3 8.2 73 2.3 W 17 20 9 11 1015.9 1015.7 0.8
19/06:30am 12.7 9.5 8.6 76 2.0 W 15 22 8 12 1015.6 1015.4 0.8
19/06:00am 12.4 9.7 8.9 79 1.8 WSW 13 17 7 9 1015.7 1015.5 0.8
19/05:30am 12.5 10.7 9.5 82 1.5 WSW 9 13 5 7 1015.6 1015.4 0.8
19/05:00am 12.5 9.5 9.3 81 1.6 W 15 20 8 11 1015.7 1015.5 0.8
19/04:30am 12.5 9.5 9.1 80 1.7 W 15 26 8 14 1015.8 1015.6 0.4
19/04:00am 11.8 8.8 9.2 84 1.3 W 15 19 8 10 1015.8 1015.6 0.4
19/03:30am 12.3 8.4 9.5 83 1.4 WSW 20 28 11 15 1016.2 1016.0 0.4
19/03:00am 13.1 10.3 8.6 74 2.3 W 13 17 7 9 1015.8 1015.6 0.4
19/02:30am 13.2 10.4 8.5 73 2.3 W 13 19 7 10 1016.1 1015.9 0.4
19/02:00am 12.8 10.0 8.7 76 2.1 WNW 13 17 7 9 1016.4 1016.2 0.4
19/01:30am 12.6 10.7 9.1 79 1.8 WSW 9 15 5 8 1016.8 1016.6 0.4
19/01:00am 13.0 10.2 8.7 75 2.2 WSW 13 19 7 10 1016.9 1016.7 0.4
19/12:30am 13.1 9.9 8.6 74 2.3 WSW 15 24 8 13 1017.0 1016.8 0.4
19/12:00am 13.0 11.4 8.9 76 2.1 W 7 11 4 6 1017.0 1016.8 0.4
 
Date/Time
CDT
Temp
°C
App
Temp
°C
Dew
Point
°C
Rel
Hum
%
Delta-T
°C
Wind Press
QNH
hPa
Press
MSL
hPa
Rain since
9am
mm
Dir  Spd
km/h
Gust
km/h
Spd
kts
Gust
kts
18/11:30pm 12.9 9.8 8.8 76 2.1 WNW 15 24 8 13 1017.0 1016.8 0.4
18/11:00pm 12.5 9.1 9.0 79 1.8 W 17 22 9 12 1017.0 1016.8 0.4
18/10:30pm 12.7 9.5 8.6 76 2.0 SW 15 19 8 10 1017.1 1016.9 0.2
18/10:00pm 12.5 10.0 8.0 74 2.2 W 11 15 6 8 1017.1 1016.9 0.2
18/09:30pm 12.4 10.1 8.9 79 1.8 W 11 13 6 7 1017.0 1016.8 0.2
18/09:00pm 13.1 9.1 9.2 77 2.0 SW 20 32 11 17 1017.0 1016.8 0.0
18/08:30pm 14.0 11.0 6.1 59 3.8 SW 11 17 6 9 1016.6 1016.4 0.0
18/08:00pm 14.9 9.8 6.2 56 4.2 SW 22 30 12 16 1016.4 1016.2 0.0
18/07:30pm 15.8 9.6 6.3 53 4.6 SSW 28 37 15 20 1016.0 1015.8 0.0
18/07:00pm 15.5 9.7 7.8 60 3.9 SSW 28 39 15 21 1015.6 1015.4 0.0
18/06:30pm 16.6 10.1 6.7 52 4.9 SSW 30 41 16 22 1015.4 1015.2 0.0
18/06:00pm 17.3 10.2 5.6 46 5.7 SSW 32 43 17 23 1015.4 1015.2 0.0
18/05:30pm 16.6 9.7 6.4 51 5.0 SSW 32 44 17 24 1015.3 1015.1 0.0
18/05:00pm 16.7 9.2 6.5 51 5.0 SSW 35 48 19 26 1015.3 1015.1 0.0
18/04:30pm 18.1 12.1 6.9 48 5.6 SSW 28 35 15 19 1015.4 1015.2 0.0
18/04:00pm 16.7 9.6 6.5 51 5.0 SSW 33 44 18 24 1015.6 1015.4 0.0
18/03:30pm 17.2 10.9 7.3 52 5.0 SSW 30 44 16 24 1015.6 1015.4 0.0
18/03:00pm 17.0 9.6 8.2 56 4.5 SSW 37 48 20 26 1015.7 1015.5 0.0
18/02:30pm 16.6 11.9 7.8 56 4.4 SSW 22 32 12 17 1015.9 1015.7 0.0
18/02:00pm 15.7 7.4 9.4 66 3.3 SSW 43 59 23 32 1015.8 1015.6 0.0
18/01:48pm 18.4 12.4 7.2 48 5.7 SSW 28 48 15 26 1015.4 1015.2 0.0
18/01:30pm 18.1 12.1 7.2 49 5.5 SSW 28 37 15 20 1015.4 1015.2 0.0
18/01:00pm 17.0 11.6 6.2 49 5.3 SW 24 33 13 18 1015.8 1015.6 0.0
18/12:30pm 14.7 7.9 9.1 69 2.9 SW 35 46 19 25 1016.0 1015.8 0.0
18/12:23pm 16.6 11.0 8.6 59 4.1 SSW 28 46 15 25 1015.7 1015.5 0.0
18/12:00pm 18.6 13.7 8.3 51 5.3 SW 24 39 13 21 1015.7 1015.5 0.0
18/11:30am 15.7 12.5 11.1 74 2.5 SW 19 26 10 14 1016.1 1015.9 0.0
18/11:00am 14.7 8.9 9.3 70 2.8 SSW 30 39 16 21 1016.0 1015.8 0.0
18/10:42am 15.5 9.6 7.5 59 4.0 SW 28 48 15 26 1015.8 1015.6 0.0
18/10:30am 16.7 11.8 7.1 53 4.8 SW 22 30 12 16 1015.7 1015.5 0.0
18/10:00am 16.5 11.1 6.3 51 5.0 SSW 24 32 13 17 1015.5 1015.3 0.0
18/09:30am 16.6 11.7 8.3 58 4.2 SW 24 32 13 17 1015.5 1015.3 0.0
18/09:00am 15.8 10.9 7.1 56 4.3 SW 22 37 12 20 1015.2 1015.0 0.4
18/08:30am 15.2 11.3 7.3 59 3.9 WSW 17 24 9 13 1015.0 1014.8 0.4
18/08:00am 14.3 11.0 8.0 66 3.1 WSW 15 22 8 12 1014.9 1014.7 0.4
18/07:30am 12.9 9.5 7.8 71 2.5 W 15 17 8 9 1014.5 1014.3 0.4
18/07:00am 11.8 9.2 7.9 77 1.9 W 11 15 6 8 1014.1 1013.9 0.4
18/06:30am 11.6 9.3 7.5 76 2.0 W 9 11 5 6 1013.7 1013.5 0.4
18/06:00am 12.3 10.0 7.6 73 2.3 W 9 11 5 6 1013.3 1013.1 0.4
18/05:30am 12.6 10.0 7.9 73 2.3 W 11 13 6 7 1013.2 1013.0 0.4
18/05:00am 13.4 11.7 8.3 71 2.5 W 7 11 4 6 1013.1 1012.9 0.4
18/04:30am 14.4 11.9 8.4 67 3.0 SW 11 19 6 10 1013.2 1013.0 0.4
18/04:00am 14.7 11.5 8.4 66 3.2 WSW 15 24 8 13 1013.2 1013.0 0.4
18/03:30am 14.6 11.5 9.0 69 2.9 WSW 15 20 8 11 1013.3 1013.1 0.4
18/03:00am 14.3 12.5 9.3 72 2.6 SW 9 13 5 7 1013.4 1013.2 0.4
18/02:30am 14.5 11.5 9.1 70 2.8 WSW 15 22 8 12 1013.5 1013.3 0.4
18/02:00am 14.3 11.3 9.1 71 2.7 WSW 15 22 8 12 1013.6 1013.4 0.4
18/01:30am 14.1 10.7 9.1 72 2.5 W 17 22 9 12 1014.0 1013.8 0.4
18/01:00am 14.0 10.7 9.6 75 2.3 W 17 20 9 11 1014.2 1014.0 0.4
18/12:30am 13.6 11.0 9.3 75 2.2 W 13 17 7 9 1014.3 1014.1 0.4
18/12:00am 14.7 11.7 9.3 70 2.8 WSW 15 20 8 11 1014.3 1014.1 0.4
 
Date/Time
CDT
Temp
°C
App
Temp
°C
Dew
Point
°C
Rel
Hum
%
Delta-T
°C
Wind Press
QNH
hPa
Press
MSL
hPa
Rain since
9am
mm
Dir  Spd
km/h
Gust
km/h
Spd
kts
Gust
kts
17/11:30pm 15.5 12.4 10.3 71 2.7 W 17 20 9 11 1014.3 1014.1 0.4
17/11:00pm 15.7 13.6 11.3 75 2.4 W 13 15 7 8 1014.6 1014.4 0.4
17/10:30pm 15.7 13.8 11.7 77 2.2 WSW 13 15 7 8 1014.7 1014.5 0.4
17/10:00pm 16.2 13.5 11.8 75 2.4 SW 17 24 9 13 1014.6 1014.4 0.4
17/09:30pm 16.5 14.8 12.5 77 2.2 SW 13 19 7 10 1014.2 1014.0 0.4

Latest Capital City Observations: Canberra | Sydney | Melbourne | Brisbane | Adelaide | Perth | Hobart | Darwin

Other Formats:

Comma delimited format used in spreadsheet applications
http://www.bom.gov.au/fwo/IDS60901/IDS60901.94814.axf

JavaScript Object Notation format (JSON) in row-major order
http://www.bom.gov.au/fwo/IDS60901/IDS60901.94814.json